createdAt,value
2018-04-30T00:00:06.500Z,0.00
2018-04-30T00:01:06.472Z,0.00
2018-04-30T00:02:06.491Z,0.00
2018-04-30T00:03:06.489Z,0.00
2018-04-30T00:04:06.471Z,0.00
2018-04-30T00:05:06.465Z,0.00
2018-04-30T00:06:06.467Z,0.00
2018-04-30T00:07:06.439Z,0.00
2018-04-30T00:08:06.438Z,0.00
2018-04-30T00:09:06.433Z,0.00
2018-04-30T00:10:06.435Z,0.00
2018-04-30T00:11:06.420Z,0.00
2018-04-30T00:12:06.435Z,0.00
2018-04-30T00:13:06.411Z,0.00
2018-04-30T00:14:06.402Z,0.00
2018-04-30T00:15:06.399Z,0.00
2018-04-30T00:16:06.397Z,0.00
2018-04-30T00:17:06.390Z,0.00
2018-04-30T00:18:06.382Z,0.00
2018-04-30T00:19:06.379Z,0.00
2018-04-30T00:20:06.386Z,0.00
2018-04-30T00:21:06.364Z,0.00
2018-04-30T00:22:06.358Z,0.00
2018-04-30T00:23:06.366Z,0.00
2018-04-30T00:24:06.356Z,0.00
2018-04-30T00:25:06.347Z,0.00
2018-04-30T00:26:06.350Z,0.00
2018-04-30T00:27:06.332Z,0.00
2018-04-30T00:28:06.345Z,0.00
2018-04-30T00:29:06.326Z,0.00
2018-04-30T00:30:06.398Z,0.00
2018-04-30T00:31:06.312Z,0.00
2018-04-30T00:32:06.345Z,0.00
2018-04-30T00:33:06.327Z,0.00
2018-04-30T00:34:06.295Z,0.00
2018-04-30T00:35:06.300Z,0.00
2018-04-30T00:36:06.286Z,0.00
2018-04-30T00:37:06.285Z,0.00
2018-04-30T00:38:06.302Z,0.00
2018-04-30T00:39:06.280Z,0.00
2018-04-30T00:40:06.276Z,0.00
2018-04-30T00:41:06.274Z,0.00
2018-04-30T00:42:06.257Z,0.00
2018-04-30T00:43:06.237Z,0.00
2018-04-30T00:44:06.235Z,0.00
2018-04-30T00:45:06.231Z,0.00
2018-04-30T00:46:06.224Z,0.00
2018-04-30T00:47:06.216Z,0.00
2018-04-30T00:48:06.216Z,0.00
2018-04-30T00:49:06.207Z,0.00
2018-04-30T00:50:06.201Z,0.00
2018-04-30T00:51:06.190Z,0.00
2018-04-30T00:52:06.187Z,0.00
2018-04-30T00:53:06.190Z,0.00
2018-04-30T00:54:06.174Z,36.00
2018-04-30T00:55:06.168Z,0.00
2018-04-30T00:56:06.173Z,0.00
2018-04-30T00:57:06.170Z,0.00
2018-04-30T00:58:06.154Z,0.00
2018-04-30T00:59:06.181Z,0.00
2018-04-30T01:00:06.138Z,0.00
2018-04-30T01:01:06.139Z,0.00
2018-04-30T01:02:06.125Z,0.00
2018-04-30T01:03:06.135Z,0.00
2018-04-30T01:04:06.682Z,0.00
2018-04-30T01:05:06.119Z,0.00
2018-04-30T01:06:06.694Z,0.00
2018-04-30T01:07:06.101Z,0.00
2018-04-30T01:08:06.106Z,0.00
2018-04-30T01:09:06.100Z,0.00
2018-04-30T01:10:06.091Z,0.00
2018-04-30T01:11:06.070Z,0.00
2018-04-30T01:12:06.063Z,0.00
2018-04-30T01:13:06.681Z,0.00
2018-04-30T01:14:06.072Z,0.00
2018-04-30T01:15:06.058Z,0.00
2018-04-30T01:16:07.673Z,0.00
2018-04-30T01:17:06.033Z,0.00
2018-04-30T01:18:06.034Z,0.00
2018-04-30T01:19:06.018Z,0.00
2018-04-30T01:20:06.014Z,0.00
2018-04-30T01:21:06.011Z,0.00
2018-04-30T01:22:05.999Z,0.00
2018-04-30T01:23:06.682Z,0.00
2018-04-30T01:24:05.989Z,0.00
2018-04-30T01:25:05.980Z,0.00
2018-04-30T01:26:05.976Z,0.00
2018-04-30T01:27:05.967Z,0.00
2018-04-30T01:28:05.964Z,0.00
2018-04-30T01:29:05.951Z,0.00
2018-04-30T01:30:05.953Z,0.00
2018-04-30T01:31:05.943Z,0.00
2018-04-30T01:32:05.949Z,0.00
2018-04-30T01:33:05.926Z,0.00
2018-04-30T01:34:05.916Z,0.00
2018-04-30T01:35:05.927Z,0.00
2018-04-30T01:36:05.942Z,0.00
2018-04-30T01:37:05.897Z,0.00
2018-04-30T01:38:05.922Z,0.00
2018-04-30T01:39:05.985Z,0.00
2018-04-30T01:40:05.880Z,0.00
2018-04-30T01:41:05.893Z,0.00
2018-04-30T01:42:05.865Z,0.00
2018-04-30T01:43:05.871Z,0.00
2018-04-30T01:44:05.851Z,0.00
2018-04-30T01:45:05.843Z,0.00
2018-04-30T01:46:05.837Z,0.00
2018-04-30T01:47:05.832Z,0.00
2018-04-30T01:48:05.830Z,0.00
2018-04-30T01:49:05.814Z,0.00
2018-04-30T01:50:05.811Z,0.00
2018-04-30T01:51:05.799Z,0.00
2018-04-30T01:52:05.819Z,0.00
2018-04-30T01:53:05.801Z,0.00
2018-04-30T01:54:05.823Z,0.00
2018-04-30T01:55:05.779Z,0.00
2018-04-30T01:56:05.770Z,0.00
2018-04-30T01:57:05.760Z,0.00
2018-04-30T01:58:05.754Z,0.00
2018-04-30T01:59:05.742Z,0.00
2018-04-30T02:00:05.741Z,0.00
2018-04-30T02:01:05.733Z,0.00
2018-04-30T02:02:05.725Z,0.00
2018-04-30T02:03:05.718Z,0.00
2018-04-30T02:04:05.708Z,0.00
2018-04-30T02:05:05.710Z,0.00
2018-04-30T02:06:05.696Z,0.00
2018-04-30T02:07:05.695Z,0.00
2018-04-30T02:08:05.682Z,0.00
2018-04-30T02:09:05.705Z,0.00
2018-04-30T02:10:05.670Z,0.00
2018-04-30T02:11:05.660Z,0.00
2018-04-30T02:12:05.655Z,0.00
2018-04-30T02:13:05.657Z,0.00
2018-04-30T02:14:05.644Z,0.00
2018-04-30T02:15:05.644Z,0.00
2018-04-30T02:16:05.628Z,0.00
2018-04-30T02:17:05.624Z,0.00
2018-04-30T02:18:05.607Z,0.00
2018-04-30T02:19:05.606Z,0.00
2018-04-30T02:20:05.591Z,0.00
2018-04-30T02:21:05.590Z,0.00
2018-04-30T02:22:05.580Z,0.00
2018-04-30T02:23:05.573Z,0.00
2018-04-30T02:24:05.580Z,0.00
2018-04-30T02:25:05.578Z,0.00
2018-04-30T02:26:05.560Z,0.00
2018-04-30T02:27:05.548Z,0.00
2018-04-30T02:28:05.542Z,0.00
2018-04-30T02:29:05.536Z,0.00
2018-04-30T02:30:05.526Z,0.00
2018-04-30T02:31:05.516Z,0.00
2018-04-30T02:32:05.512Z,0.00
2018-04-30T02:33:05.513Z,0.00
2018-04-30T02:34:05.505Z,0.00
2018-04-30T02:35:05.492Z,0.00
2018-04-30T02:36:05.488Z,0.00
2018-04-30T02:37:05.475Z,0.00
2018-04-30T02:38:05.482Z,0.00
2018-04-30T02:39:05.462Z,0.00
2018-04-30T02:40:05.458Z,0.00
2018-04-30T02:41:05.451Z,0.00
2018-04-30T02:42:05.440Z,0.00
2018-04-30T02:43:05.435Z,0.00
2018-04-30T02:44:05.424Z,0.00
2018-04-30T02:45:05.423Z,0.00
2018-04-30T02:46:05.412Z,0.00
2018-04-30T02:47:05.408Z,0.00
2018-04-30T02:48:05.398Z,0.00
2018-04-30T02:49:05.394Z,0.00
2018-04-30T02:50:05.384Z,0.00
2018-04-30T02:51:05.374Z,0.00
2018-04-30T02:52:05.375Z,0.00
2018-04-30T02:53:05.366Z,0.00
2018-04-30T02:54:05.356Z,0.00
2018-04-30T02:55:05.348Z,0.00
2018-04-30T02:56:05.345Z,0.00
2018-04-30T02:57:05.336Z,0.00
2018-04-30T02:58:05.328Z,0.00
2018-04-30T02:59:05.317Z,0.00
2018-04-30T03:00:05.309Z,0.00
2018-04-30T03:01:05.304Z,0.00
2018-04-30T03:02:05.301Z,0.00
2018-04-30T03:03:05.297Z,0.00
2018-04-30T03:04:05.282Z,0.00
2018-04-30T03:05:05.281Z,0.00
2018-04-30T03:06:05.268Z,0.00
2018-04-30T03:07:05.259Z,0.00
2018-04-30T03:08:05.257Z,0.00
2018-04-30T03:09:05.255Z,0.00
2018-04-30T03:10:05.241Z,0.00
2018-04-30T03:11:05.231Z,0.00
2018-04-30T03:12:05.228Z,0.00
2018-04-30T03:13:05.216Z,0.00
2018-04-30T03:14:05.234Z,0.00
2018-04-30T03:15:05.215Z,0.00
2018-04-30T03:16:05.212Z,0.00
2018-04-30T03:17:05.188Z,0.00
2018-04-30T03:18:05.188Z,0.00
2018-04-30T03:19:05.183Z,0.00
2018-04-30T03:20:05.168Z,0.00
2018-04-30T03:21:05.160Z,0.00
2018-04-30T03:22:05.158Z,0.00
2018-04-30T03:23:05.162Z,0.00
2018-04-30T03:24:05.142Z,0.00
2018-04-30T03:25:05.139Z,0.00
2018-04-30T03:26:05.124Z,0.00
2018-04-30T03:27:05.117Z,0.00
2018-04-30T03:28:05.110Z,0.00
2018-04-30T03:29:05.104Z,4.00
2018-04-30T03:30:05.100Z,4.00
2018-04-30T03:31:05.090Z,4.00
2018-04-30T03:32:05.083Z,4.00
2018-04-30T03:33:05.075Z,4.00
2018-04-30T03:34:05.072Z,8.00
2018-04-30T03:35:05.061Z,4.00
2018-04-30T03:36:05.054Z,8.00
2018-04-30T03:37:05.047Z,8.00
2018-04-30T03:38:05.042Z,8.00
2018-04-30T03:39:05.035Z,12.00
2018-04-30T03:40:05.033Z,12.00
2018-04-30T03:41:05.020Z,12.00
2018-04-30T03:42:05.021Z,16.00
2018-04-30T03:43:05.006Z,16.00
2018-04-30T03:44:04.999Z,16.00
2018-04-30T03:45:04.993Z,24.00
2018-04-30T03:46:04.986Z,24.00
2018-04-30T03:47:04.979Z,24.00
2018-04-30T03:48:04.971Z,28.00
2018-04-30T03:49:04.962Z,32.00
2018-04-30T03:50:04.953Z,36.00
2018-04-30T03:51:04.950Z,40.00
2018-04-30T03:52:04.943Z,44.00
2018-04-30T03:53:04.938Z,52.00
2018-04-30T03:54:04.938Z,56.00
2018-04-30T03:55:04.918Z,56.00
2018-04-30T03:56:04.913Z,60.00
2018-04-30T03:57:04.908Z,72.00
2018-04-30T03:58:04.895Z,72.00
2018-04-30T03:59:04.892Z,76.00
2018-04-30T04:00:04.886Z,92.00
2018-04-30T04:01:04.882Z,92.00
2018-04-30T04:02:04.867Z,100.00
2018-04-30T04:03:04.938Z,116.00
2018-04-30T04:04:04.854Z,112.00
2018-04-30T04:05:04.853Z,116.00
2018-04-30T04:06:04.840Z,124.00
2018-04-30T04:07:04.852Z,132.00
2018-04-30T04:08:04.825Z,136.00
2018-04-30T04:09:04.831Z,144.00
2018-04-30T04:10:04.814Z,156.00
2018-04-30T04:11:04.816Z,168.00
2018-04-30T04:12:04.817Z,172.00
2018-04-30T04:13:04.793Z,184.00
2018-04-30T04:14:04.783Z,192.00
2018-04-30T04:15:04.778Z,208.00
2018-04-30T04:16:04.781Z,224.00
2018-04-30T04:17:04.763Z,228.00
2018-04-30T04:18:04.753Z,256.00
2018-04-30T04:19:04.747Z,272.00
2018-04-30T04:20:04.744Z,296.00
2018-04-30T04:21:04.739Z,324.00
2018-04-30T04:22:04.729Z,348.00
2018-04-30T04:23:04.735Z,384.00
2018-04-30T04:24:04.711Z,412.00
2018-04-30T04:25:04.711Z,420.00
2018-04-30T04:26:04.694Z,448.00
2018-04-30T04:27:04.691Z,484.00
2018-04-30T04:28:04.685Z,512.00
2018-04-30T04:29:04.674Z,544.00
2018-04-30T04:30:04.670Z,568.00
2018-04-30T04:31:04.660Z,608.00
2018-04-30T04:32:04.655Z,660.00
2018-04-30T04:33:04.649Z,664.00
2018-04-30T04:34:04.642Z,656.00
2018-04-30T04:35:04.645Z,668.00
2018-04-30T04:36:04.621Z,652.00
2018-04-30T04:37:04.639Z,720.00
2018-04-30T04:38:04.617Z,808.00
2018-04-30T04:39:04.606Z,1108.00
2018-04-30T04:40:04.600Z,1180.00
2018-04-30T04:41:04.595Z,1188.00
2018-04-30T04:42:04.580Z,1136.00
2018-04-30T04:43:04.576Z,1120.00
2018-04-30T04:44:04.564Z,1208.00
2018-04-30T04:45:04.561Z,1260.00
2018-04-30T04:46:04.553Z,1240.00
2018-04-30T04:47:04.544Z,892.00
2018-04-30T04:48:04.544Z,968.00
2018-04-30T04:49:04.535Z,1180.00
2018-04-30T04:50:04.522Z,1288.00
2018-04-30T04:51:04.542Z,1260.00
2018-04-30T04:52:04.508Z,1316.00
2018-04-30T04:53:04.503Z,1240.00
2018-04-30T04:54:04.499Z,1140.00
2018-04-30T04:55:04.488Z,1224.00
2018-04-30T04:56:04.481Z,1616.00
2018-04-30T04:57:04.474Z,1992.00
2018-04-30T04:58:04.462Z,1520.00
2018-04-30T04:59:04.455Z,1372.00
2018-04-30T05:00:04.454Z,1436.00
2018-04-30T05:01:04.445Z,1448.00
2018-04-30T05:02:04.438Z,1464.00
2018-04-30T05:03:04.433Z,1404.00
2018-04-30T05:04:04.421Z,1628.00
2018-04-30T05:05:04.413Z,1544.00
2018-04-30T05:06:04.409Z,1448.00
2018-04-30T05:07:04.405Z,1528.00
2018-04-30T05:08:04.396Z,1548.00
2018-04-30T05:09:04.386Z,1644.00
2018-04-30T05:10:04.381Z,1788.00
2018-04-30T05:11:04.379Z,1620.00
2018-04-30T05:12:04.363Z,1236.00
2018-04-30T05:13:05.011Z,1504.00
2018-04-30T05:14:04.348Z,1404.00
2018-04-30T05:15:04.342Z,1704.00
2018-04-30T05:16:04.333Z,1676.00
2018-04-30T05:17:04.328Z,1708.00
2018-04-30T05:18:04.324Z,1604.00
2018-04-30T05:19:04.314Z,1844.00
2018-04-30T05:20:04.311Z,1912.00
2018-04-30T05:21:04.299Z,1796.00
2018-04-30T05:22:04.290Z,1684.00
2018-04-30T05:23:04.290Z,1668.00
2018-04-30T05:24:04.283Z,1776.00
2018-04-30T05:25:04.273Z,1924.00
2018-04-30T05:26:04.263Z,1792.00
2018-04-30T05:27:04.264Z,1792.00
2018-04-30T05:28:04.255Z,1672.00
2018-04-30T05:29:04.245Z,1868.00
2018-04-30T05:30:04.256Z,1712.00
2018-04-30T05:31:04.232Z,1620.00
2018-04-30T05:32:04.227Z,1740.00
2018-04-30T05:33:04.217Z,1536.00
2018-04-30T05:34:04.211Z,1748.00
2018-04-30T05:35:04.209Z,1804.00
2018-04-30T05:36:04.193Z,1764.00
2018-04-30T05:37:04.189Z,1912.00
2018-04-30T05:38:04.176Z,2036.00
2018-04-30T05:39:04.194Z,2324.00
2018-04-30T05:40:04.188Z,3196.00
2018-04-30T05:41:04.170Z,2852.00
2018-04-30T05:42:04.167Z,3008.00
2018-04-30T05:43:04.156Z,3008.00
2018-04-30T05:44:04.147Z,2864.00
2018-04-30T05:45:04.134Z,2804.00
2018-04-30T05:46:04.134Z,2916.00
2018-04-30T05:47:04.118Z,2908.00
2018-04-30T05:48:05.840Z,2828.00
2018-04-30T05:49:04.109Z,2660.00
2018-04-30T05:50:04.128Z,2680.00
2018-04-30T05:51:04.090Z,2392.00
2018-04-30T05:52:04.082Z,2552.00
2018-04-30T05:53:04.079Z,2268.00
2018-04-30T05:54:04.069Z,2140.00
2018-04-30T05:55:04.059Z,2088.00
2018-04-30T05:56:04.054Z,1788.00
2018-04-30T05:57:04.048Z,1640.00
2018-04-30T05:58:04.047Z,1496.00
2018-04-30T05:59:04.039Z,1440.00
2018-04-30T06:00:04.028Z,1484.00
2018-04-30T06:01:04.021Z,1460.00
2018-04-30T06:02:04.013Z,1428.00
2018-04-30T06:03:04.011Z,1520.00
2018-04-30T06:04:03.999Z,1440.00
2018-04-30T06:05:04.000Z,1772.00
2018-04-30T06:06:03.993Z,1664.00
2018-04-30T06:07:03.984Z,1948.00
2018-04-30T06:08:03.971Z,2088.00
2018-04-30T06:09:03.964Z,1844.00
2018-04-30T06:10:03.960Z,1756.00
2018-04-30T06:11:03.960Z,1896.00
2018-04-30T06:12:03.953Z,1892.00
2018-04-30T06:13:03.943Z,1660.00
2018-04-30T06:14:03.933Z,2072.00
2018-04-30T06:15:03.921Z,1760.00
2018-04-30T06:16:03.918Z,1936.00
2018-04-30T06:17:03.911Z,1696.00
2018-04-30T06:18:03.908Z,1780.00
2018-04-30T06:19:03.895Z,1744.00
2018-04-30T06:20:03.893Z,1460.00
2018-04-30T06:21:03.883Z,1572.00
2018-04-30T06:22:03.875Z,1252.00
2018-04-30T06:23:03.873Z,1432.00
2018-04-30T06:24:03.864Z,1548.00
2018-04-30T06:25:03.854Z,1412.00
2018-04-30T06:26:03.846Z,1240.00
2018-04-30T06:27:03.844Z,1560.00
2018-04-30T06:28:03.834Z,1616.00
2018-04-30T06:29:03.828Z,1364.00
2018-04-30T06:30:03.822Z,1532.00
2018-04-30T06:31:03.815Z,1876.00
2018-04-30T06:32:03.805Z,1584.00
2018-04-30T06:33:03.812Z,1452.00
2018-04-30T06:34:03.797Z,1980.00
2018-04-30T06:35:03.785Z,2360.00
2018-04-30T06:36:03.779Z,1764.00
2018-04-30T06:37:03.770Z,1992.00
2018-04-30T06:38:03.769Z,1992.00
2018-04-30T06:39:03.778Z,2764.00
2018-04-30T06:40:03.753Z,2700.00
2018-04-30T06:41:03.757Z,2100.00
2018-04-30T06:42:03.743Z,1816.00
2018-04-30T06:43:03.741Z,2764.00
2018-04-30T06:44:03.721Z,1812.00
2018-04-30T06:45:03.716Z,1848.00
2018-04-30T06:46:03.712Z,2156.00
2018-04-30T06:47:03.704Z,2600.00
2018-04-30T06:48:03.698Z,2212.00
2018-04-30T06:49:03.687Z,2164.00
2018-04-30T06:50:03.684Z,2200.00
2018-04-30T06:51:03.678Z,2088.00
2018-04-30T06:52:03.667Z,2844.00
2018-04-30T06:53:03.664Z,1944.00
2018-04-30T06:54:03.653Z,2300.00
2018-04-30T06:55:03.647Z,1892.00
2018-04-30T06:56:03.725Z,2012.00
2018-04-30T06:57:03.632Z,1600.00
2018-04-30T06:58:03.634Z,1380.00
2018-04-30T06:59:03.619Z,1500.00
2018-04-30T07:00:03.613Z,1608.00
2018-04-30T07:01:03.613Z,1192.00
2018-04-30T07:02:03.603Z,1072.00
2018-04-30T07:03:03.595Z,1196.00
2018-04-30T07:04:03.584Z,1560.00
2018-04-30T07:05:03.579Z,2156.00
2018-04-30T07:06:03.573Z,1756.00
2018-04-30T07:07:03.564Z,2540.00
2018-04-30T07:08:03.565Z,4048.00
2018-04-30T07:09:03.587Z,4676.00
2018-04-30T07:10:03.546Z,5408.00
2018-04-30T07:11:03.539Z,7148.00
2018-04-30T07:12:03.543Z,8116.00
2018-04-30T07:13:03.521Z,7932.00
2018-04-30T07:14:03.516Z,8192.00
2018-04-30T07:15:03.510Z,7940.00
2018-04-30T07:16:03.502Z,7228.00
2018-04-30T07:17:03.498Z,6988.00
2018-04-30T07:18:03.489Z,7652.00
2018-04-30T07:19:03.486Z,8248.00
2018-04-30T07:20:03.489Z,8368.00
2018-04-30T07:21:03.469Z,8172.00
2018-04-30T07:22:03.469Z,8360.00
2018-04-30T07:23:03.454Z,9564.00
2018-04-30T07:24:03.456Z,10608.00
2018-04-30T07:25:03.446Z,10624.00
2018-04-30T07:26:03.436Z,10628.00
2018-04-30T07:27:03.426Z,11348.00
2018-04-30T07:28:03.425Z,12736.00
2018-04-30T07:29:03.417Z,13332.00
2018-04-30T07:30:03.411Z,13228.00
2018-04-30T07:31:03.414Z,12580.00
2018-04-30T07:32:03.397Z,12716.00
2018-04-30T07:33:03.398Z,12144.00
2018-04-30T07:34:03.383Z,13180.00
2018-04-30T07:35:03.377Z,13532.00
2018-04-30T07:36:03.370Z,12636.00
2018-04-30T07:37:03.368Z,11968.00
2018-04-30T07:38:03.362Z,10628.00
2018-04-30T07:39:03.418Z,9044.00
2018-04-30T07:40:03.349Z,7308.00
2018-04-30T07:41:03.342Z,7024.00
2018-04-30T07:42:03.338Z,6880.00
2018-04-30T07:43:03.329Z,7448.00
2018-04-30T07:44:03.326Z,7612.00
2018-04-30T07:45:03.317Z,6372.00
2018-04-30T07:46:03.314Z,6576.00
2018-04-30T07:47:03.309Z,7120.00
2018-04-30T07:48:03.301Z,6772.00
2018-04-30T07:49:03.299Z,7264.00
2018-04-30T07:50:03.307Z,7388.00
2018-04-30T07:51:03.283Z,7252.00
2018-04-30T07:52:03.275Z,6620.00
2018-04-30T07:53:03.269Z,5732.00
2018-04-30T07:54:03.263Z,4744.00
2018-04-30T07:55:03.256Z,5080.00
2018-04-30T07:56:03.248Z,5296.00
2018-04-30T07:57:03.242Z,4336.00
2018-04-30T07:58:03.238Z,5644.00
2018-04-30T07:59:03.234Z,6812.00
2018-04-30T08:00:03.225Z,7664.00
2018-04-30T08:01:03.220Z,6300.00
2018-04-30T08:02:03.216Z,6352.00
2018-04-30T08:03:03.290Z,5148.00
2018-04-30T08:04:03.198Z,3380.00
2018-04-30T08:05:03.194Z,2948.00
2018-04-30T08:06:03.185Z,2844.00
2018-04-30T08:07:03.181Z,2888.00
2018-04-30T08:08:03.175Z,2952.00
2018-04-30T08:09:03.211Z,2980.00
2018-04-30T08:10:03.163Z,2928.00
2018-04-30T08:11:03.153Z,2720.00
2018-04-30T08:12:03.153Z,2716.00
2018-04-30T08:13:03.153Z,2960.00
2018-04-30T08:14:03.134Z,2516.00
2018-04-30T08:15:03.133Z,2452.00
2018-04-30T08:16:03.121Z,2752.00
2018-04-30T08:17:03.120Z,2536.00
2018-04-30T08:18:03.107Z,2412.00
2018-04-30T08:19:03.101Z,2260.00
2018-04-30T08:20:03.100Z,2108.00
2018-04-30T08:21:03.093Z,2032.00
2018-04-30T08:22:03.094Z,2128.00
2018-04-30T08:23:03.078Z,3624.00
2018-04-30T08:24:03.070Z,4972.00
2018-04-30T08:25:03.061Z,6072.00
2018-04-30T08:26:03.059Z,5944.00
2018-04-30T08:27:03.053Z,4872.00
2018-04-30T08:28:03.045Z,4628.00
2018-04-30T08:29:03.037Z,4316.00
2018-04-30T08:30:03.032Z,4436.00
2018-04-30T08:31:03.022Z,4828.00
2018-04-30T08:32:03.020Z,4276.00
2018-04-30T08:33:03.010Z,4696.00
2018-04-30T08:34:03.007Z,4448.00
2018-04-30T08:35:03.000Z,4380.00
2018-04-30T08:36:02.994Z,3896.00
2018-04-30T08:37:02.988Z,3048.00
2018-04-30T08:38:03.060Z,3792.00
2018-04-30T08:39:02.968Z,4072.00
2018-04-30T08:40:02.972Z,3472.00
2018-04-30T08:41:02.965Z,3940.00
2018-04-30T08:42:02.956Z,3624.00
2018-04-30T08:43:02.946Z,3380.00
2018-04-30T08:44:02.931Z,2848.00
2018-04-30T08:45:02.998Z,2416.00
2018-04-30T08:46:02.921Z,2532.00
2018-04-30T08:47:02.916Z,2292.00
2018-04-30T08:48:02.921Z,1808.00
2018-04-30T08:49:02.900Z,2128.00
2018-04-30T08:50:02.894Z,2932.00
2018-04-30T08:51:02.884Z,4652.00
2018-04-30T08:52:02.885Z,7964.00
2018-04-30T08:53:02.873Z,8964.00
2018-04-30T08:54:02.870Z,8668.00
2018-04-30T08:55:02.858Z,8884.00
2018-04-30T08:56:02.854Z,9316.00
2018-04-30T08:57:02.843Z,10776.00
2018-04-30T08:58:02.836Z,9468.00
2018-04-30T08:59:02.831Z,8644.00
2018-04-30T09:00:02.822Z,8720.00
2018-04-30T09:01:02.816Z,9332.00
2018-04-30T09:02:02.811Z,10136.00
2018-04-30T09:03:02.803Z,10504.00
2018-04-30T09:04:02.792Z,10276.00
2018-04-30T09:05:02.795Z,9824.00
2018-04-30T09:06:02.787Z,9632.00
2018-04-30T09:07:02.782Z,10672.00
2018-04-30T09:08:02.764Z,12128.00
2018-04-30T09:09:02.755Z,12940.00
2018-04-30T09:10:02.752Z,13100.00
2018-04-30T09:11:02.745Z,13296.00
2018-04-30T09:12:02.757Z,13336.00
2018-04-30T09:13:02.743Z,13360.00
2018-04-30T09:14:02.729Z,11740.00
2018-04-30T09:15:02.722Z,9736.00
2018-04-30T09:16:02.709Z,9360.00
2018-04-30T09:17:02.700Z,10556.00
2018-04-30T09:18:02.695Z,9980.00
2018-04-30T09:19:02.686Z,9196.00
2018-04-30T09:20:02.685Z,9296.00
2018-04-30T09:21:02.678Z,10180.00
2018-04-30T09:22:02.667Z,10984.00
2018-04-30T09:23:02.657Z,10656.00
2018-04-30T09:24:02.648Z,10176.00
2018-04-30T09:25:02.643Z,10068.00
2018-04-30T09:26:02.638Z,10288.00
2018-04-30T09:27:02.633Z,10068.00
2018-04-30T09:28:02.665Z,10100.00
2018-04-30T09:29:02.627Z,10384.00
2018-04-30T09:30:02.604Z,10772.00
2018-04-30T09:31:02.599Z,11712.00
2018-04-30T09:32:02.596Z,12640.00
2018-04-30T09:33:02.592Z,13312.00
2018-04-30T09:34:02.586Z,13500.00
2018-04-30T09:35:02.610Z,12916.00
2018-04-30T09:36:02.568Z,11224.00
2018-04-30T09:37:02.560Z,9072.00
2018-04-30T09:38:02.562Z,8012.00
2018-04-30T09:39:03.332Z,7492.00
2018-04-30T09:40:02.542Z,7024.00
2018-04-30T09:41:02.542Z,6980.00
2018-04-30T09:42:02.525Z,6616.00
2018-04-30T09:43:02.516Z,6016.00
2018-04-30T09:44:02.515Z,5680.00
2018-04-30T09:45:02.506Z,5788.00
2018-04-30T09:46:02.491Z,6060.00
2018-04-30T09:47:02.490Z,7124.00
2018-04-30T09:48:02.484Z,8068.00
2018-04-30T09:49:02.474Z,8148.00
2018-04-30T09:50:02.467Z,7972.00
2018-04-30T09:51:02.455Z,8172.00
2018-04-30T09:52:02.488Z,8372.00
2018-04-30T09:53:02.443Z,8524.00
2018-04-30T09:54:02.440Z,8392.00
2018-04-30T09:55:02.428Z,8276.00
2018-04-30T09:56:02.425Z,8068.00
2018-04-30T09:57:02.415Z,8072.00
2018-04-30T09:58:02.414Z,8552.00
2018-04-30T09:59:02.401Z,9132.00
2018-04-30T10:00:02.393Z,9552.00
2018-04-30T10:01:02.388Z,9688.00
2018-04-30T10:02:02.388Z,9504.00
2018-04-30T10:03:02.380Z,9264.00
2018-04-30T10:04:02.363Z,9156.00
2018-04-30T10:05:02.358Z,9124.00
2018-04-30T10:06:02.347Z,9036.00
2018-04-30T10:07:02.345Z,9220.00
2018-04-30T10:08:02.337Z,9468.00
2018-04-30T10:09:02.337Z,9316.00
2018-04-30T10:10:02.333Z,8760.00
2018-04-30T10:11:02.306Z,8168.00
2018-04-30T10:12:02.312Z,8068.00
2018-04-30T10:13:02.299Z,8228.00
2018-04-30T10:14:02.297Z,7752.00
2018-04-30T10:15:02.284Z,6768.00
2018-04-30T10:16:02.277Z,5584.00
2018-04-30T10:17:02.269Z,5164.00
2018-04-30T10:18:02.266Z,5116.00
2018-04-30T10:19:02.257Z,5420.00
2018-04-30T10:20:02.251Z,6020.00
2018-04-30T10:21:02.241Z,6412.00
2018-04-30T10:22:02.236Z,6672.00
2018-04-30T10:23:02.229Z,6888.00
2018-04-30T10:24:02.220Z,7212.00
2018-04-30T10:25:02.212Z,7872.00
2018-04-30T10:26:02.220Z,8784.00
2018-04-30T10:27:02.200Z,9552.00
2018-04-30T10:28:02.192Z,10204.00
2018-04-30T10:29:02.187Z,10944.00
2018-04-30T10:30:02.177Z,11724.00
2018-04-30T10:31:02.167Z,12632.00
2018-04-30T10:32:02.165Z,13992.00
2018-04-30T10:33:02.158Z,15372.00
2018-04-30T10:34:02.145Z,16012.00
2018-04-30T10:35:02.136Z,15668.00
2018-04-30T10:36:02.129Z,15392.00
2018-04-30T10:37:02.129Z,15428.00
2018-04-30T10:38:02.165Z,15828.00
2018-04-30T10:39:02.109Z,17120.00
2018-04-30T10:40:02.104Z,19008.00
2018-04-30T10:41:02.094Z,21152.00
2018-04-30T10:42:02.091Z,23424.00
2018-04-30T10:43:02.084Z,24512.00
2018-04-30T10:44:02.071Z,25024.00
2018-04-30T10:45:02.069Z,24960.00
2018-04-30T10:46:02.136Z,24544.00
2018-04-30T10:47:02.055Z,23424.00
2018-04-30T10:48:02.058Z,22912.00
2018-04-30T10:49:02.038Z,21888.00
2018-04-30T10:50:02.036Z,21088.00
2018-04-30T10:51:02.025Z,20448.00
2018-04-30T10:52:02.021Z,19936.00
2018-04-30T10:53:02.023Z,18976.00
2018-04-30T10:54:02.009Z,17632.00
2018-04-30T10:55:02.029Z,16556.00
2018-04-30T10:56:02.009Z,15600.00
2018-04-30T10:57:01.993Z,14528.00
2018-04-30T10:58:01.980Z,13608.00
2018-04-30T10:59:01.972Z,12956.00
2018-04-30T11:00:01.977Z,12824.00
2018-04-30T11:01:01.968Z,12952.00
2018-04-30T11:02:01.963Z,13344.00
2018-04-30T11:03:01.953Z,14372.00
2018-04-30T11:04:01.954Z,15880.00
2018-04-30T11:05:01.936Z,18240.00
2018-04-30T11:06:01.937Z,21984.00
2018-04-30T11:07:01.924Z,25056.00
2018-04-30T11:08:01.919Z,28992.00
2018-04-30T11:09:01.912Z,34848.00
2018-04-30T11:10:01.907Z,60160.00
2018-04-30T11:11:01.906Z,52992.00
2018-04-30T11:12:01.909Z,73632.00
2018-04-30T11:13:01.897Z,75488.00
2018-04-30T11:14:02.849Z,53600.00
2018-04-30T11:15:01.873Z,62592.00
2018-04-30T11:16:01.867Z,93408.00
2018-04-30T11:17:01.865Z,87744.00
2018-04-30T11:18:01.854Z,72864.00
2018-04-30T11:19:01.859Z,94048.00
2018-04-30T11:20:02.352Z,108672.00
2018-04-30T11:21:01.842Z,106048.00
2018-04-30T11:22:01.839Z,99136.00
2018-04-30T11:23:01.836Z,89408.00
2018-04-30T11:24:01.832Z,88192.00
2018-04-30T11:25:01.834Z,69952.00
2018-04-30T11:26:01.832Z,61888.00
2018-04-30T11:27:01.825Z,67712.00
2018-04-30T11:28:01.821Z,58624.00
2018-04-30T11:29:01.816Z,73120.00
2018-04-30T11:30:01.821Z,77536.00
2018-04-30T11:31:01.809Z,104928.00
2018-04-30T11:32:01.810Z,112896.00
2018-04-30T11:33:01.807Z,119168.00
2018-04-30T11:34:01.859Z,122592.00
2018-04-30T11:35:01.798Z,134016.00
2018-04-30T11:36:01.800Z,94048.00
2018-04-30T11:37:01.801Z,53120.00
2018-04-30T11:38:01.797Z,18976.00
2018-04-30T11:39:01.799Z,18336.00
2018-04-30T11:40:01.806Z,16896.00
2018-04-30T11:41:01.796Z,15200.00
2018-04-30T11:42:01.800Z,14272.00
2018-04-30T11:43:01.800Z,15648.00
2018-04-30T11:44:01.792Z,11504.00
2018-04-30T11:45:01.794Z,9660.00
2018-04-30T11:46:01.789Z,8376.00
2018-04-30T11:47:01.802Z,5084.00
2018-04-30T11:48:01.785Z,4368.00
2018-04-30T11:49:01.783Z,4380.00
2018-04-30T11:50:01.780Z,6304.00
2018-04-30T11:51:01.788Z,6928.00
2018-04-30T11:52:01.783Z,6064.00
2018-04-30T11:53:01.776Z,5444.00
2018-04-30T11:54:01.774Z,5640.00
2018-04-30T11:55:01.765Z,8220.00
2018-04-30T11:56:01.762Z,13980.00
2018-04-30T11:57:01.756Z,16184.00
2018-04-30T11:58:01.758Z,17120.00
2018-04-30T11:59:01.766Z,16336.00
2018-04-30T12:00:01.753Z,18464.00
2018-04-30T12:01:01.746Z,21152.00
2018-04-30T12:02:01.740Z,21824.00
2018-04-30T12:03:01.743Z,19776.00
2018-04-30T12:04:01.734Z,19776.00
2018-04-30T12:05:01.730Z,22976.00
2018-04-30T12:06:01.722Z,25472.00
2018-04-30T12:07:01.721Z,20032.00
2018-04-30T12:08:01.721Z,17024.00
2018-04-30T12:09:01.709Z,14948.00
2018-04-30T12:10:01.705Z,14836.00
2018-04-30T12:11:01.763Z,16960.00
2018-04-30T12:12:01.699Z,15544.00
2018-04-30T12:13:01.692Z,15160.00
2018-04-30T12:14:01.691Z,20224.00
2018-04-30T12:15:01.686Z,14600.00
2018-04-30T12:16:01.680Z,11336.00
2018-04-30T12:17:01.678Z,10656.00
2018-04-30T12:18:01.668Z,12168.00
2018-04-30T12:19:01.670Z,14680.00
2018-04-30T12:20:01.665Z,13196.00
2018-04-30T12:21:01.659Z,12676.00
2018-04-30T12:22:01.681Z,12512.00
2018-04-30T12:23:01.645Z,10560.00